createdAt,value
2024-04-10T00:00:59.448Z,10.04
2024-04-10T00:01:59.365Z,10.05
2024-04-10T00:02:59.330Z,10.08
2024-04-10T00:03:59.393Z,10.09
2024-04-10T00:04:59.364Z,10.11
2024-04-10T00:05:59.432Z,10.09
2024-04-10T00:06:59.257Z,10.07
2024-04-10T00:07:59.263Z,10.05
2024-04-10T00:08:59.242Z,10.04
2024-04-10T00:09:59.247Z,10.01
2024-04-10T00:10:59.319Z,9.97
2024-04-10T00:11:59.354Z,9.90
2024-04-10T00:12:59.207Z,9.84
2024-04-10T00:13:59.176Z,9.79
2024-04-10T00:14:59.245Z,9.75
2024-04-10T00:15:59.171Z,9.72
2024-04-10T00:16:59.201Z,9.65
2024-04-10T00:17:59.319Z,9.61
2024-04-10T00:18:59.514Z,9.64
2024-04-10T00:19:59.291Z,9.60
2024-04-10T00:20:59.124Z,9.60
2024-04-10T00:21:59.093Z,9.56
2024-04-10T00:22:59.146Z,9.54
2024-04-10T00:23:59.082Z,9.51
2024-04-10T00:24:59.120Z,9.50
2024-04-10T00:25:59.080Z,9.51
2024-04-10T00:26:59.051Z,9.51
2024-04-10T00:27:59.055Z,9.51
2024-04-10T00:28:59.094Z,9.53
2024-04-10T00:29:59.035Z,9.54
2024-04-10T00:30:58.991Z,9.51
2024-04-10T00:31:59.032Z,9.48
2024-04-10T00:32:59.160Z,9.50
2024-04-10T00:33:59.149Z,9.46
2024-04-10T00:34:59.056Z,9.46
2024-04-10T00:35:59.008Z,9.46
2024-04-10T00:36:58.926Z,9.47
2024-04-10T00:37:58.953Z,9.50
2024-04-10T00:38:58.909Z,9.50
2024-04-10T00:39:58.902Z,9.51
2024-04-10T00:40:59.001Z,9.53
2024-04-10T00:41:58.943Z,9.53
2024-04-10T00:42:58.900Z,9.54
2024-04-10T00:43:58.905Z,9.53
2024-04-10T00:44:58.859Z,9.51
2024-04-10T00:45:58.889Z,9.53
2024-04-10T00:46:58.942Z,9.54
2024-04-10T00:47:59.032Z,9.57
2024-04-10T00:48:58.957Z,9.57
2024-04-10T00:49:58.842Z,9.58
2024-04-10T00:50:58.784Z,9.56
2024-04-10T00:51:58.856Z,9.56
2024-04-10T00:52:58.814Z,9.58
2024-04-10T00:53:58.811Z,9.56
2024-04-10T00:54:58.750Z,9.56
2024-04-10T00:55:58.833Z,9.56
2024-04-10T00:56:58.775Z,9.56
2024-04-10T00:57:58.743Z,9.57
2024-04-10T00:58:58.740Z,9.56
2024-04-10T00:59:58.759Z,9.60
2024-04-10T01:00:58.720Z,9.64
2024-04-10T01:01:58.774Z,9.57
2024-04-10T01:02:58.777Z,9.57
2024-04-10T01:03:58.701Z,9.57
2024-04-10T01:04:58.722Z,9.57
2024-04-10T01:05:58.643Z,9.58
2024-04-10T01:06:58.705Z,9.57
2024-04-10T01:07:58.659Z,9.58
2024-04-10T01:08:58.623Z,9.60
2024-04-10T01:09:58.594Z,9.61
2024-04-10T01:10:58.627Z,9.65
2024-04-10T01:11:58.681Z,9.60
2024-04-10T01:12:58.598Z,9.61
2024-04-10T01:13:58.722Z,9.61
2024-04-10T01:14:58.563Z,9.61
2024-04-10T01:15:58.518Z,9.64
2024-04-10T01:16:58.641Z,9.66
2024-04-10T01:17:58.571Z,9.65
2024-04-10T01:18:58.542Z,9.66
2024-04-10T01:19:58.578Z,9.68
2024-04-10T01:20:58.520Z,9.71
2024-04-10T01:21:58.488Z,9.71
2024-04-10T01:22:58.551Z,9.72
2024-04-10T01:23:58.437Z,9.72
2024-04-10T01:24:58.467Z,9.71
2024-04-10T01:25:58.442Z,9.72
2024-04-10T01:26:58.435Z,9.74
2024-04-10T01:27:58.472Z,9.75
2024-04-10T01:28:58.465Z,9.76
2024-04-10T01:29:58.426Z,9.75
2024-04-10T01:30:58.410Z,9.75
2024-04-10T01:31:58.390Z,9.76
2024-04-10T01:32:58.535Z,9.76
2024-04-10T01:33:58.416Z,9.75
2024-04-10T01:34:58.375Z,9.76
2024-04-10T01:35:58.383Z,9.76
2024-04-10T01:36:58.375Z,9.78
2024-04-10T01:37:58.318Z,9.78
2024-04-10T01:38:58.292Z,9.81
2024-04-10T01:39:58.325Z,9.81
2024-04-10T01:40:58.269Z,9.84
2024-04-10T01:41:58.302Z,9.86
2024-04-10T01:42:58.248Z,9.84
2024-04-10T01:43:58.420Z,9.84
2024-04-10T01:44:58.228Z,9.87
2024-04-10T01:45:58.204Z,9.89
2024-04-10T01:46:58.312Z,9.87
2024-04-10T01:47:58.391Z,9.86
2024-04-10T01:48:58.233Z,9.87
2024-04-10T01:49:58.180Z,9.87
2024-04-10T01:50:58.163Z,9.87
2024-04-10T01:51:58.178Z,9.89
2024-04-10T01:52:58.174Z,9.89
2024-04-10T01:53:58.141Z,9.91
2024-04-10T01:54:58.144Z,9.91
2024-04-10T01:55:58.201Z,9.91
2024-04-10T01:56:58.097Z,9.90
2024-04-10T01:57:58.089Z,9.91
2024-04-10T01:58:58.207Z,9.93
2024-04-10T01:59:58.087Z,9.91
2024-04-10T02:00:58.100Z,9.91
2024-04-10T02:01:58.111Z,9.91
2024-04-10T02:02:58.185Z,9.91
2024-04-10T02:03:58.157Z,9.90
2024-04-10T02:04:58.068Z,9.94
2024-04-10T02:05:58.031Z,9.96
2024-04-10T02:06:58.019Z,9.91
2024-04-10T02:07:58.026Z,9.96
2024-04-10T02:08:57.967Z,9.96
2024-04-10T02:09:57.987Z,9.94
2024-04-10T02:10:58.031Z,9.96
2024-04-10T02:11:58.075Z,9.96
2024-04-10T02:12:57.993Z,9.94
2024-04-10T02:13:57.953Z,9.96
2024-04-10T02:14:57.889Z,9.96
2024-04-10T02:15:58.033Z,9.94
2024-04-10T02:16:58.061Z,9.99
2024-04-10T02:17:57.959Z,9.96
2024-04-10T02:18:57.894Z,9.97
2024-04-10T02:19:57.929Z,9.97
2024-04-10T02:21:00.453Z,9.97
2024-04-10T02:21:57.831Z,9.99
2024-04-10T02:22:57.855Z,9.97
2024-04-10T02:23:57.891Z,10.01
2024-04-10T02:24:57.829Z,10.01
2024-04-10T02:25:57.884Z,10.02
2024-04-10T02:26:57.808Z,10.01
2024-04-10T02:27:57.822Z,10.01
2024-04-10T02:28:57.791Z,10.02
2024-04-10T02:29:57.748Z,10.02
2024-04-10T02:30:57.796Z,10.02
2024-04-10T02:31:57.738Z,10.05
2024-04-10T02:32:57.944Z,10.05
2024-04-10T02:33:57.867Z,10.05
2024-04-10T02:34:57.749Z,10.05
2024-04-10T02:35:57.721Z,10.07
2024-04-10T02:36:57.723Z,10.07
2024-04-10T02:37:57.734Z,10.08
2024-04-10T02:38:57.701Z,10.08
2024-04-10T02:39:57.660Z,10.07
2024-04-10T02:40:57.747Z,10.08
2024-04-10T02:41:57.673Z,10.08
2024-04-10T02:42:57.622Z,10.09
2024-04-10T02:43:57.683Z,10.09
2024-04-10T02:44:57.661Z,10.08
2024-04-10T02:45:57.677Z,10.09
2024-04-10T02:46:57.620Z,10.09
2024-04-10T02:47:57.696Z,10.09
2024-04-10T02:48:57.632Z,10.09
2024-04-10T02:49:57.584Z,10.11
2024-04-10T02:50:57.604Z,10.11
2024-04-10T02:51:57.525Z,10.11
2024-04-10T02:52:57.647Z,10.12
2024-04-10T02:53:57.583Z,10.11
2024-04-10T02:54:58.217Z,10.12
2024-04-10T02:55:57.614Z,10.12
2024-04-10T02:56:57.630Z,10.14
2024-04-10T02:57:57.574Z,10.12
2024-04-10T02:58:57.525Z,10.12
2024-04-10T02:59:57.568Z,10.14
2024-04-10T03:00:57.604Z,10.14
2024-04-10T03:01:57.508Z,10.15
2024-04-10T03:02:57.585Z,10.14
2024-04-10T03:03:57.632Z,10.15
2024-04-10T03:04:57.405Z,10.12
2024-04-10T03:05:57.397Z,10.14
2024-04-10T03:06:57.434Z,10.15
2024-04-10T03:07:57.424Z,10.14
2024-04-10T03:08:57.398Z,10.15
2024-04-10T03:09:57.390Z,10.17
2024-04-10T03:10:57.429Z,10.15
2024-04-10T03:11:57.887Z,10.15
2024-04-10T03:12:57.305Z,10.15
2024-04-10T03:13:57.342Z,10.17
2024-04-10T03:14:57.318Z,10.15
2024-04-10T03:15:57.317Z,10.18
2024-04-10T03:16:57.428Z,10.18
2024-04-10T03:17:57.407Z,10.17
2024-04-10T03:18:57.260Z,10.18
2024-04-10T03:19:57.296Z,10.20
2024-04-10T03:20:57.275Z,10.22
2024-04-10T03:21:57.222Z,10.18
2024-04-10T03:22:57.305Z,10.22
2024-04-10T03:23:57.239Z,10.20
2024-04-10T03:24:57.180Z,10.22
2024-04-10T03:25:57.192Z,10.25
2024-04-10T03:26:57.211Z,10.27
2024-04-10T03:27:57.162Z,10.30
2024-04-10T03:28:57.179Z,10.30
2024-04-10T03:29:57.130Z,10.29
2024-04-10T03:30:57.140Z,10.30
2024-04-10T03:31:57.118Z,10.30
2024-04-10T03:32:57.228Z,10.32
2024-04-10T03:33:57.283Z,10.32
2024-04-10T03:34:57.128Z,10.32
2024-04-10T03:35:57.084Z,10.33
2024-04-10T03:36:57.074Z,10.36
2024-04-10T03:37:57.129Z,10.34
2024-04-10T03:38:57.076Z,10.33
2024-04-10T03:39:57.028Z,10.34
2024-04-10T03:40:57.119Z,10.36
2024-04-10T03:41:57.042Z,10.38
2024-04-10T03:42:57.055Z,10.36
2024-04-10T03:43:57.100Z,10.40
2024-04-10T03:44:57.037Z,10.40
2024-04-10T03:45:56.991Z,10.41
2024-04-10T03:46:57.081Z,10.42
2024-04-10T03:47:57.148Z,10.42
2024-04-10T03:48:57.051Z,10.44
2024-04-10T03:49:57.578Z,10.42
2024-04-10T03:50:57.033Z,10.44
2024-04-10T03:51:56.926Z,10.44
2024-04-10T03:52:56.941Z,10.45
2024-04-10T03:53:56.903Z,10.45
2024-04-10T03:54:56.903Z,10.47
2024-04-10T03:55:57.003Z,10.48
2024-04-10T03:56:57.560Z,10.48
2024-04-10T03:57:56.889Z,10.52
2024-04-10T03:58:56.908Z,10.53
2024-04-10T03:59:56.845Z,10.52
2024-04-10T04:00:56.968Z,10.55
2024-04-10T04:01:56.960Z,10.53
2024-04-10T04:02:56.896Z,10.53
2024-04-10T04:03:56.891Z,10.56
2024-04-10T04:04:56.863Z,10.55
2024-04-10T04:05:56.828Z,10.56
2024-04-10T04:06:56.781Z,10.59
2024-04-10T04:07:56.860Z,10.56
2024-04-10T04:08:56.750Z,10.56
2024-04-10T04:09:56.760Z,10.56
2024-04-10T04:10:56.975Z,10.55
2024-04-10T04:11:56.911Z,10.56
2024-04-10T04:12:56.774Z,10.56
2024-04-10T04:13:56.746Z,10.60
2024-04-10T04:14:56.707Z,10.56
2024-04-10T04:15:56.872Z,10.59
2024-04-10T04:16:56.710Z,10.61
2024-04-10T04:17:56.836Z,10.63
2024-04-10T04:18:56.679Z,10.61
2024-04-10T04:19:56.748Z,10.63
2024-04-10T04:20:56.639Z,10.64
2024-04-10T04:21:56.747Z,10.67
2024-04-10T04:22:56.634Z,10.64
2024-04-10T04:23:56.618Z,10.66
2024-04-10T04:24:56.605Z,10.63
2024-04-10T04:25:56.647Z,10.64
2024-04-10T04:26:56.574Z,10.66
2024-04-10T04:27:56.602Z,10.66
2024-04-10T04:28:56.585Z,10.67
2024-04-10T04:29:56.660Z,10.66
2024-04-10T04:30:56.547Z,10.64
2024-04-10T04:31:56.611Z,10.66
2024-04-10T04:32:56.730Z,10.66
2024-04-10T04:33:56.576Z,10.64
2024-04-10T04:34:56.628Z,10.67
2024-04-10T04:35:56.509Z,10.64
2024-04-10T04:36:56.494Z,10.66
2024-04-10T04:37:56.633Z,10.66
2024-04-10T04:38:56.557Z,10.67
2024-04-10T04:39:56.533Z,10.66
2024-04-10T04:40:56.465Z,10.64
2024-04-10T04:41:56.469Z,10.70
2024-04-10T04:42:56.430Z,10.70
2024-04-10T04:43:56.502Z,10.70
2024-04-10T04:44:56.496Z,10.71
2024-04-10T04:45:56.401Z,10.71
2024-04-10T04:46:56.484Z,10.73
2024-04-10T04:47:56.577Z,10.74
2024-04-10T04:48:56.397Z,10.71
2024-04-10T04:49:56.413Z,10.74
2024-04-10T04:50:56.614Z,10.76
2024-04-10T04:51:56.367Z,10.76
2024-04-10T04:52:56.393Z,10.74
2024-04-10T04:53:56.392Z,10.73
2024-04-10T04:54:56.376Z,10.71
2024-04-10T04:55:56.398Z,10.71
2024-04-10T04:56:56.320Z,10.70
2024-04-10T04:57:56.323Z,10.70
2024-04-10T04:58:56.365Z,10.70
2024-04-10T04:59:56.302Z,10.68
2024-04-10T05:00:56.354Z,10.70
2024-04-10T05:01:56.314Z,10.70
2024-04-10T05:02:56.505Z,10.71
2024-04-10T05:03:56.345Z,10.71
2024-04-10T05:04:56.268Z,10.73
2024-04-10T05:05:56.251Z,10.73
2024-04-10T05:06:56.194Z,10.78
2024-04-10T05:07:56.234Z,10.78
2024-04-10T05:08:56.205Z,10.81
2024-04-10T05:09:56.156Z,10.79
2024-04-10T05:10:56.219Z,10.81
2024-04-10T05:11:57.418Z,10.84
2024-04-10T05:12:56.860Z,10.85
2024-04-10T05:13:56.204Z,10.86
2024-04-10T05:14:56.147Z,10.91
2024-04-10T05:15:56.197Z,10.92
2024-04-10T05:16:56.175Z,10.96
2024-04-10T05:17:56.204Z,10.96
2024-04-10T05:18:56.126Z,10.97
2024-04-10T05:19:56.151Z,10.99
2024-04-10T05:20:56.109Z,11.00
2024-04-10T05:21:56.079Z,11.02
2024-04-10T05:22:56.080Z,11.02
2024-04-10T05:23:56.068Z,11.02
2024-04-10T05:24:56.040Z,11.00
2024-04-10T05:25:56.134Z,11.02
2024-04-10T05:26:56.058Z,11.02
2024-04-10T05:27:56.072Z,11.02
2024-04-10T05:28:56.040Z,11.00
2024-04-10T05:29:55.988Z,11.02
2024-04-10T05:30:55.992Z,11.00
2024-04-10T05:31:56.000Z,10.99
2024-04-10T05:32:56.141Z,10.99
2024-04-10T05:33:56.046Z,10.97
2024-04-10T05:34:55.984Z,10.97
2024-04-10T05:35:55.967Z,10.97
2024-04-10T05:36:55.927Z,10.97
2024-04-10T05:37:55.963Z,10.96
2024-04-10T05:38:55.951Z,10.96
2024-04-10T05:39:55.904Z,10.96
2024-04-10T05:40:55.927Z,10.96
2024-04-10T05:41:55.858Z,10.96
2024-04-10T05:42:55.882Z,10.99
2024-04-10T05:43:55.928Z,10.97
2024-04-10T05:44:55.866Z,11.00
2024-04-10T05:45:55.886Z,11.00
2024-04-10T05:46:55.875Z,11.02
2024-04-10T05:47:56.018Z,11.03
2024-04-10T05:48:55.888Z,11.06
2024-04-10T05:49:55.938Z,11.07
2024-04-10T05:50:55.777Z,11.07
2024-04-10T05:51:55.775Z,11.09
2024-04-10T05:52:55.808Z,11.14
2024-04-10T05:53:55.780Z,11.14
2024-04-10T05:54:55.776Z,11.18
2024-04-10T05:55:55.846Z,11.21
2024-04-10T05:56:55.722Z,11.24
2024-04-10T05:57:55.731Z,11.25
2024-04-10T05:58:55.822Z,11.32
2024-04-10T05:59:55.689Z,11.33
2024-04-10T06:00:56.360Z,11.36
2024-04-10T06:01:55.768Z,11.40
2024-04-10T06:02:55.917Z,11.46
2024-04-10T06:03:55.921Z,11.51
2024-04-10T06:04:55.728Z,11.55
2024-04-10T06:05:55.640Z,11.57
2024-04-10T06:06:55.621Z,11.61
2024-04-10T06:07:55.704Z,11.61
2024-04-10T06:08:55.636Z,11.64
2024-04-10T06:09:55.648Z,11.70
2024-04-10T06:10:55.640Z,11.72
2024-04-10T06:11:58.199Z,11.75
2024-04-10T06:12:55.607Z,11.80
2024-04-10T06:13:55.605Z,11.83
2024-04-10T06:14:55.586Z,11.83
2024-04-10T06:15:55.530Z,11.85
2024-04-10T06:16:55.565Z,11.86
2024-04-10T06:17:55.685Z,11.88
2024-04-10T06:18:55.512Z,11.90
2024-04-10T06:19:55.577Z,11.91
2024-04-10T06:20:55.482Z,11.95
2024-04-10T06:21:55.470Z,11.95
2024-04-10T06:22:55.516Z,11.96
2024-04-10T06:23:56.458Z,11.99
2024-04-10T06:24:55.487Z,12.01
2024-04-10T06:25:55.441Z,12.01
2024-04-10T06:26:55.414Z,12.04
2024-04-10T06:27:55.410Z,12.05
2024-04-10T06:28:55.614Z,12.02
2024-04-10T06:29:55.386Z,12.02
2024-04-10T06:30:55.374Z,11.96
2024-04-10T06:31:55.389Z,11.94
2024-04-10T06:32:55.457Z,11.94
2024-04-10T06:33:55.424Z,11.95
2024-04-10T06:34:55.403Z,11.96
2024-04-10T06:35:55.379Z,11.96
2024-04-10T06:36:55.363Z,11.96
2024-04-10T06:37:55.349Z,11.98
2024-04-10T06:38:55.388Z,11.96
2024-04-10T06:39:55.317Z,11.95
2024-04-10T06:40:55.338Z,11.96
2024-04-10T06:41:55.248Z,11.98
2024-04-10T06:42:55.298Z,12.01
2024-04-10T06:43:55.304Z,12.02
2024-04-10T06:44:55.328Z,12.07
2024-04-10T06:45:55.207Z,12.09
2024-04-10T06:46:55.284Z,12.10
2024-04-10T06:47:55.420Z,12.13
2024-04-10T06:48:55.542Z,12.14
2024-04-10T06:49:55.309Z,12.12
2024-04-10T06:50:55.254Z,12.16
2024-04-10T06:51:55.210Z,12.16
2024-04-10T06:52:55.865Z,12.14
2024-04-10T06:53:55.134Z,12.12
2024-04-10T06:54:55.181Z,12.05
2024-04-10T06:55:55.245Z,12.02
2024-04-10T06:56:55.125Z,11.98
2024-04-10T06:57:55.082Z,11.95
2024-04-10T06:58:55.115Z,11.96
2024-04-10T06:59:55.119Z,11.96
2024-04-10T07:00:55.115Z,11.95
2024-04-10T07:01:55.095Z,11.94
2024-04-10T07:02:55.034Z,11.96
2024-04-10T07:03:55.095Z,11.99
2024-04-10T07:04:57.280Z,12.02
2024-04-10T07:05:55.067Z,12.01
2024-04-10T07:06:55.010Z,11.99
2024-04-10T07:07:54.993Z,12.01
2024-04-10T07:08:54.961Z,11.99
2024-04-10T07:09:54.961Z,11.98
2024-04-10T07:10:55.050Z,11.95
2024-04-10T07:11:55.069Z,11.96
2024-04-10T07:12:54.925Z,11.98
2024-04-10T07:13:55.208Z,11.96
2024-04-10T07:14:54.918Z,11.96
2024-04-10T07:15:54.951Z,11.96
2024-04-10T07:16:54.924Z,11.99
2024-04-10T07:17:54.981Z,12.02
2024-04-10T07:18:54.903Z,12.04
2024-04-10T07:19:54.875Z,12.09
2024-04-10T08:31:58.767Z,14.29
2024-04-10T08:32:59.701Z,14.43
2024-04-10T08:33:59.639Z,14.45
2024-04-10T08:34:59.503Z,14.33
2024-04-10T08:35:59.491Z,14.39
2024-04-10T08:36:59.551Z,14.43
2024-04-10T08:37:59.549Z,14.43
2024-04-10T08:38:59.573Z,14.46
2024-04-10T08:39:59.553Z,14.51
2024-04-10T08:40:59.541Z,14.52
2024-04-10T08:41:59.457Z,14.51
2024-04-10T08:42:59.441Z,14.52
2024-04-10T08:43:59.437Z,14.61
2024-04-10T08:44:59.393Z,14.72
2024-04-10T08:45:59.362Z,14.73
2024-04-10T08:46:59.529Z,14.75
2024-04-10T08:47:59.530Z,14.75
2024-04-10T08:48:59.599Z,14.70
2024-04-10T08:49:59.424Z,14.77
2024-04-10T08:50:59.315Z,14.86
2024-04-10T08:51:59.491Z,15.01
2024-04-10T08:52:59.365Z,15.11
2024-04-10T08:53:59.356Z,15.21
2024-04-10T08:54:59.317Z,15.21
2024-04-10T08:56:03.346Z,15.16
2024-04-10T08:56:59.242Z,15.10
2024-04-10T08:57:59.449Z,15.13
2024-04-10T08:58:59.248Z,15.02
2024-04-10T08:59:59.238Z,15.01
2024-04-10T09:00:59.431Z,15.02
2024-04-10T09:01:59.193Z,15.01
2024-04-10T09:02:59.226Z,14.92
2024-04-10T09:03:59.248Z,14.77
2024-04-10T09:04:59.302Z,14.69
2024-04-10T09:05:59.143Z,14.62
2024-04-10T09:06:59.228Z,14.57
2024-04-10T09:07:59.140Z,14.52
2024-04-10T09:08:59.155Z,14.50
2024-04-10T09:09:59.367Z,14.55
2024-04-10T09:10:59.140Z,14.57
2024-04-10T09:11:59.147Z,14.61
2024-04-10T09:12:59.074Z,14.57
2024-04-10T09:13:59.140Z,14.52
2024-04-10T09:14:59.071Z,14.57
2024-04-10T09:15:59.069Z,14.64
2024-04-10T09:16:59.090Z,14.70
2024-04-10T09:17:59.040Z,14.72
2024-04-10T09:18:59.173Z,14.72
2024-04-10T09:19:59.109Z,14.57
2024-04-10T09:20:59.064Z,14.32
2024-04-10T09:21:59.059Z,14.21
2024-04-10T09:22:58.991Z,14.24
2024-04-10T09:23:59.059Z,14.33
2024-04-10T09:24:58.945Z,14.43
2024-04-10T09:25:58.969Z,14.47
2024-04-10T09:26:59.098Z,14.58
2024-04-10T09:27:58.908Z,14.69
2024-04-10T09:28:58.984Z,14.83
2024-04-10T09:29:58.975Z,14.95
2024-04-10T09:30:58.863Z,15.01
2024-04-10T09:31:58.900Z,15.02
2024-04-10T09:32:58.956Z,15.02
2024-04-10T09:33:58.886Z,15.06
2024-04-10T09:34:58.826Z,15.13
2024-04-10T09:35:58.978Z,15.20
2024-04-10T09:36:58.856Z,15.32
2024-04-10T09:37:58.944Z,15.46
2024-04-10T09:38:58.878Z,15.64
2024-04-10T09:39:58.833Z,15.83
2024-04-10T09:40:58.774Z,16.07
2024-04-10T09:41:58.805Z,16.34
2024-04-10T09:42:58.782Z,16.64
2024-04-10T09:43:58.737Z,16.91
2024-04-10T09:44:58.791Z,17.06
2024-04-10T09:45:58.733Z,17.16
2024-04-10T09:46:58.743Z,17.22
2024-04-10T09:47:58.794Z,17.15
2024-04-10T09:48:58.967Z,17.08
2024-04-10T09:49:58.733Z,17.06
2024-04-10T09:50:58.733Z,17.04
2024-04-10T09:51:58.668Z,17.06
2024-04-10T09:52:58.654Z,17.03
2024-04-10T09:53:58.894Z,16.93
2024-04-10T09:54:58.607Z,16.82
2024-04-10T09:55:58.596Z,16.81
2024-04-10T09:56:58.806Z,16.85
2024-04-10T09:57:58.609Z,16.91
2024-04-10T09:58:58.575Z,16.93
2024-04-10T09:59:58.581Z,16.88
2024-04-10T10:00:58.585Z,16.83
2024-04-10T10:01:58.600Z,16.86
2024-04-10T10:02:58.603Z,16.70
2024-04-10T10:03:58.738Z,16.52
2024-04-10T10:04:58.557Z,16.43
2024-04-10T10:05:58.506Z,16.45
2024-04-10T10:06:58.495Z,16.48
2024-04-10T10:07:58.571Z,16.48
2024-04-10T10:08:58.499Z,16.49
2024-04-10T10:09:58.498Z,16.50
2024-04-10T10:10:58.582Z,16.50
2024-04-10T10:11:58.522Z,16.52
2024-04-10T10:12:58.441Z,16.49
2024-04-10T10:13:58.395Z,16.38
2024-04-10T10:14:58.483Z,16.28
2024-04-10T10:15:58.474Z,16.20
2024-04-10T10:16:58.366Z,16.11
2024-04-10T10:18:02.879Z,16.04
2024-04-10T10:18:58.426Z,15.87
2024-04-10T10:19:58.396Z,15.76
2024-04-10T10:20:58.406Z,15.72
2024-04-10T10:21:58.303Z,15.71
2024-04-10T10:22:58.361Z,15.72
2024-04-10T10:23:58.549Z,15.72
2024-04-10T10:24:58.272Z,15.69
2024-04-10T10:25:58.356Z,15.64
2024-04-10T10:26:58.385Z,15.57
2024-04-10T10:27:58.352Z,15.53
2024-04-10T10:28:58.251Z,15.56
2024-04-10T10:29:58.268Z,15.62
2024-04-10T10:30:58.242Z,15.67
2024-04-10T10:31:58.255Z,15.69
2024-04-10T10:32:58.319Z,15.71
2024-04-10T10:33:58.427Z,15.71
2024-04-10T10:34:58.189Z,15.72
2024-04-10T10:35:58.284Z,15.76
2024-04-10T10:36:58.173Z,15.78
2024-04-10T10:37:58.138Z,15.80
2024-04-10T10:38:58.265Z,15.82
2024-04-10T10:39:58.109Z,15.89
2024-04-10T10:40:58.169Z,16.01
2024-04-10T10:41:58.214Z,16.20
2024-04-10T10:42:58.077Z,16.31
2024-04-10T10:43:58.062Z,16.43
2024-04-10T10:44:58.192Z,16.50
2024-04-10T10:45:58.073Z,16.58
2024-04-10T10:46:58.091Z,16.61
2024-04-10T10:47:58.279Z,16.67
2024-04-10T10:48:58.064Z,16.76
2024-04-10T10:49:58.021Z,16.88
2024-04-10T10:50:58.353Z,17.03
2024-04-10T10:51:57.993Z,17.11
2024-04-10T10:52:58.020Z,17.12
2024-04-10T10:53:58.159Z,17.12
2024-04-10T10:54:57.999Z,16.85
2024-04-10T10:55:57.988Z,16.63
2024-04-10T10:56:58.032Z,16.25
2024-04-10T10:57:57.963Z,15.90
2024-04-10T10:58:57.904Z,15.60
2024-04-10T10:59:57.983Z,15.35
2024-04-10T11:00:58.010Z,15.13
2024-04-10T11:01:57.876Z,15.09
2024-04-10T11:02:59.553Z,15.11
2024-04-10T11:03:58.149Z,15.23
2024-04-10T11:04:57.923Z,15.34
2024-04-10T11:05:57.883Z,15.56
2024-04-10T11:06:57.858Z,15.69
2024-04-10T11:07:57.860Z,15.84
2024-04-10T11:08:57.913Z,15.96
2024-04-10T11:09:57.865Z,16.11
2024-04-10T11:10:57.847Z,16.14
2024-04-10T11:11:57.896Z,16.11
2024-04-10T11:12:57.771Z,16.08
2024-04-10T11:13:57.749Z,16.07
2024-04-10T11:14:57.845Z,15.94
2024-04-10T11:15:57.831Z,15.74
2024-04-10T11:16:57.737Z,15.87
2024-04-10T11:17:57.784Z,16.09
2024-04-10T11:18:57.707Z,16.15
2024-04-10T11:19:57.759Z,16.31
2024-04-10T11:20:57.752Z,16.50
2024-04-10T11:21:57.692Z,16.78
2024-04-10T11:22:57.688Z,16.96
2024-04-10T11:23:57.707Z,17.14
2024-04-10T11:24:57.642Z,17.28
2024-04-10T11:25:57.664Z,17.36
2024-04-10T11:26:57.833Z,17.41
2024-04-10T11:27:57.597Z,17.46
2024-04-10T11:28:57.591Z,17.40
2024-04-10T11:29:57.718Z,17.38
2024-04-10T11:30:57.623Z,17.34
2024-04-10T11:31:57.568Z,17.30
2024-04-10T11:32:57.666Z,17.03
2024-04-10T11:33:58.083Z,16.78
2024-04-10T11:34:57.678Z,16.58
2024-04-10T11:35:57.733Z,16.45
2024-04-10T11:36:57.477Z,16.23
2024-04-10T11:37:57.563Z,16.04
2024-04-10T11:38:57.640Z,15.93
2024-04-10T11:39:57.452Z,15.96
2024-04-10T11:41:01.068Z,16.17
2024-04-10T11:41:57.664Z,16.50
2024-04-10T11:42:57.581Z,16.78
2024-04-10T11:43:57.479Z,17.06
2024-04-10T11:44:57.493Z,17.22
2024-04-10T11:45:57.414Z,17.23
2024-04-10T11:46:57.438Z,17.19
2024-04-10T11:47:57.577Z,17.16
2024-04-10T11:48:57.461Z,17.03
2024-04-10T11:49:57.365Z,16.96
2024-04-10T11:50:57.489Z,17.00
2024-04-10T11:51:57.338Z,17.08
2024-04-10T11:52:57.408Z,17.26
2024-04-10T11:53:57.550Z,17.41
2024-04-10T11:54:57.303Z,17.56
2024-04-10T11:55:57.326Z,17.66
2024-04-10T11:56:57.431Z,17.71
2024-04-10T11:57:57.350Z,17.40
2024-04-10T11:58:57.379Z,17.23
2024-04-10T11:59:57.360Z,17.11
2024-04-10T12:00:57.327Z,17.04
2024-04-10T12:01:57.249Z,17.03
2024-04-10T12:02:57.446Z,16.94
2024-04-10T12:03:57.249Z,16.88
2024-04-10T12:04:57.272Z,16.83
2024-04-10T12:05:57.256Z,16.83
2024-04-10T12:06:57.196Z,16.82
2024-04-10T12:07:57.197Z,16.76
2024-04-10T12:08:57.532Z,16.70
2024-04-10T12:09:57.201Z,16.63
2024-04-10T12:10:57.132Z,16.57
2024-04-10T12:11:57.224Z,16.49
2024-04-10T12:12:57.138Z,16.35
2024-04-10T12:13:57.153Z,16.28
2024-04-10T12:14:57.799Z,16.27
2024-04-10T12:15:57.180Z,16.25
2024-04-10T12:16:57.105Z,16.27
2024-04-10T12:17:57.225Z,16.23
2024-04-10T12:18:57.188Z,16.20
2024-04-10T12:19:57.071Z,16.20
2024-04-10T12:20:57.188Z,16.17
2024-04-10T12:21:57.052Z,16.12
2024-04-10T12:22:57.104Z,16.05
2024-04-10T12:23:57.258Z,15.97
2024-04-10T12:24:57.062Z,15.92
2024-04-10T12:25:57.028Z,15.87
2024-04-10T12:26:57.209Z,15.83
2024-04-10T12:27:56.970Z,15.82
2024-04-10T12:28:56.969Z,15.89
2024-04-10T12:29:57.032Z,15.97
2024-04-10T12:30:56.901Z,16.09
2024-04-10T12:31:56.900Z,16.17
2024-04-10T12:32:57.122Z,16.28
2024-04-10T12:33:57.929Z,16.43
2024-04-10T12:34:56.882Z,16.63
2024-04-10T12:35:57.176Z,16.76
2024-04-10T12:36:56.923Z,16.86
2024-04-10T12:37:56.845Z,16.82
2024-04-10T12:38:57.110Z,16.78
2024-04-10T12:39:56.846Z,16.73
2024-04-10T12:40:56.994Z,16.71
2024-04-10T12:41:56.835Z,16.76
2024-04-10T12:42:56.861Z,16.81
2024-04-10T12:43:56.865Z,16.78
2024-04-10T12:44:56.871Z,16.73
2024-04-10T12:45:56.897Z,16.70
2024-04-10T12:46:56.899Z,16.64
2024-04-10T12:47:57.134Z,16.57
2024-04-10T12:48:56.752Z,16.46
2024-04-10T12:49:56.712Z,16.41
2024-04-10T12:50:56.768Z,16.31
2024-04-10T12:51:56.676Z,16.21
2024-04-10T12:52:56.887Z,16.15
2024-04-10T12:53:57.444Z,16.14
2024-04-10T12:54:56.812Z,16.11
2024-04-10T12:55:56.735Z,16.08
2024-04-10T12:56:56.646Z,16.21
2024-04-10T12:57:56.819Z,16.27
2024-04-10T12:58:56.754Z,16.28
2024-04-10T12:59:56.791Z,16.33
2024-04-10T13:00:56.855Z,16.33
2024-04-10T13:01:56.604Z,16.31
2024-04-10T13:02:56.747Z,16.28
2024-04-10T13:03:56.672Z,16.23
2024-04-10T13:04:56.585Z,16.11
2024-04-10T13:05:56.583Z,16.02
2024-04-10T13:06:56.585Z,15.87
2024-04-10T13:07:56.667Z,15.78
2024-04-10T13:08:56.667Z,15.72
2024-04-10T13:09:56.474Z,15.75
2024-04-10T13:10:56.481Z,15.76
2024-04-10T13:11:56.504Z,15.72
2024-04-10T13:12:56.493Z,15.74
2024-04-10T13:13:56.506Z,15.74
2024-04-10T13:14:56.609Z,15.74
2024-04-10T13:15:56.570Z,15.76
2024-04-10T13:16:56.698Z,15.78
2024-04-10T13:17:56.535Z,15.80
2024-04-10T13:18:56.593Z,15.83
2024-04-10T13:19:56.462Z,15.86
2024-04-10T13:20:56.477Z,15.78
2024-04-10T13:21:56.376Z,15.65
2024-04-10T13:22:56.401Z,15.54
2024-04-10T13:23:57.416Z,15.47
2024-04-10T13:24:56.414Z,15.41
2024-04-10T13:25:57.693Z,15.35
2024-04-10T13:26:56.416Z,15.28
2024-04-10T13:27:56.314Z,15.20
2024-04-10T13:28:56.283Z,15.25
2024-04-10T13:29:56.521Z,15.28
2024-04-10T13:30:56.332Z,15.28
2024-04-10T13:31:56.275Z,15.31
2024-04-10T13:32:56.313Z,15.35
2024-04-10T13:33:56.710Z,15.34
2024-04-10T13:34:56.248Z,15.31
2024-04-10T13:35:56.433Z,15.31
2024-04-10T13:36:57.190Z,15.31
2024-04-10T13:37:56.223Z,15.36
2024-04-10T13:38:56.195Z,15.44
2024-04-10T13:39:56.193Z,15.56
2024-04-10T13:40:56.334Z,15.78
2024-04-10T13:41:56.235Z,16.02
2024-04-10T13:42:56.120Z,16.23
2024-04-10T13:43:56.565Z,16.31
2024-04-10T13:44:56.306Z,16.30
2024-04-10T13:45:57.068Z,16.31
2024-04-10T13:46:56.280Z,16.09
2024-04-10T13:47:56.334Z,15.86
2024-04-10T13:48:56.150Z,15.67
2024-04-10T13:49:56.149Z,15.49
2024-04-10T13:50:56.149Z,15.35
2024-04-10T13:51:56.097Z,15.23
2024-04-10T13:52:56.186Z,15.21
2024-04-10T13:53:56.600Z,15.28
2024-04-10T13:54:56.014Z,15.31
2024-04-10T13:55:56.010Z,15.35
2024-04-10T13:56:56.109Z,15.46
2024-04-10T13:57:56.279Z,15.46
2024-04-10T13:58:55.998Z,15.47
2024-04-10T13:59:56.100Z,15.50
2024-04-10T14:00:55.929Z,15.51
2024-04-10T14:01:55.970Z,15.44
2024-04-10T14:02:56.054Z,15.38
2024-04-10T14:03:56.911Z,15.39
2024-04-10T14:04:55.991Z,15.44
2024-04-10T14:05:56.001Z,15.44
2024-04-10T14:06:55.912Z,15.50
2024-04-10T14:07:55.907Z,15.57